sensor_id;sensor_type;location;lat;lon;timestamp;pressure;altitude;pressure_sealevel;temperature;humidity
82931;BME280;72705;53.346;10.248;2024-02-23T00:02:22;97968.25;;;9.13;71.42
82931;BME280;72705;53.346;10.248;2024-02-23T00:04:51;97993.94;;;9.27;71.59
82931;BME280;72705;53.346;10.248;2024-02-23T00:07:17;97997.06;;;9.06;71.07
82931;BME280;72705;53.346;10.248;2024-02-23T00:09:42;98017.22;;;9.15;70.75
82931;BME280;72705;53.346;10.248;2024-02-23T00:12:07;97999.47;;;8.89;71.55
82931;BME280;72705;53.346;10.248;2024-02-23T00:14:36;98030.34;;;9.05;70.59
82931;BME280;72705;53.346;10.248;2024-02-23T00:17:08;98020.63;;;9.04;68.95
82931;BME280;72705;53.346;10.248;2024-02-23T00:19:58;98019.66;;;8.98;69.86
82931;BME280;72705;53.346;10.248;2024-02-23T00:22:23;98051.19;;;8.84;71.07
82931;BME280;72705;53.346;10.248;2024-02-23T00:24:57;98026.56;;;8.87;70.58
82931;BME280;72705;53.346;10.248;2024-02-23T00:27:30;98025.03;;;8.73;71.38
82931;BME280;72705;53.346;10.248;2024-02-23T00:29:56;98024.53;;;8.83;70.73
82931;BME280;72705;53.346;10.248;2024-02-23T00:32:23;98041.56;;;8.70;72.02
82931;BME280;72705;53.346;10.248;2024-02-23T00:34:51;98062.63;;;8.73;72.97
82931;BME280;72705;53.346;10.248;2024-02-23T00:37:16;98066.56;;;8.71;73.34
82931;BME280;72705;53.346;10.248;2024-02-23T00:39:42;98054.38;;;8.75;73.53
82931;BME280;72705;53.346;10.248;2024-02-23T00:42:07;98070.94;;;8.65;74.35
82931;BME280;72705;53.346;10.248;2024-02-23T00:44:33;98068.44;;;8.70;73.82
82931;BME280;72705;53.346;10.248;2024-02-23T00:47:03;98066.53;;;8.77;73.58
82931;BME280;72705;53.346;10.248;2024-02-23T00:49:30;98072.13;;;8.76;74.19
82931;BME280;72705;53.346;10.248;2024-02-23T00:51:56;98058.47;;;8.77;73.20
82931;BME280;72705;53.346;10.248;2024-02-23T00:54:22;98063.25;;;8.75;74.24
82931;BME280;72705;53.346;10.248;2024-02-23T00:56:55;98078.75;;;8.73;73.87
82931;BME280;72705;53.346;10.248;2024-02-23T00:59:21;98080.78;;;8.78;73.54
82931;BME280;72705;53.346;10.248;2024-02-23T01:01:46;98086.19;;;8.71;74.44
82931;BME280;72705;53.346;10.248;2024-02-23T01:04:12;98098.81;;;8.71;74.13
82931;BME280;72705;53.346;10.248;2024-02-23T01:06:37;98088.03;;;8.77;73.17
82931;BME280;72705;53.346;10.248;2024-02-23T01:09:03;98101.91;;;8.74;74.01
82931;BME280;72705;53.346;10.248;2024-02-23T01:11:29;98106.84;;;8.77;72.29
82931;BME280;72705;53.346;10.248;2024-02-23T01:13:55;98125.06;;;8.75;72.87
82931;BME280;72705;53.346;10.248;2024-02-23T01:16:20;98127.75;;;8.75;72.92
82931;BME280;72705;53.346;10.248;2024-02-23T01:18:46;98082.09;;;8.69;73.42
82931;BME280;72705;53.346;10.248;2024-02-23T01:21:15;98130.97;;;8.46;76.71
82931;BME280;72705;53.346;10.248;2024-02-23T01:23:41;98133.31;;;8.36;76.06
82931;BME280;72705;53.346;10.248;2024-02-23T01:26:07;98142.00;;;8.18;78.50
82931;BME280;72705;53.346;10.248;2024-02-23T01:28:35;98176.75;;;8.06;81.82
82931;BME280;72705;53.346;10.248;2024-02-23T01:31:00;98191.44;;;7.78;85.44
82931;BME280;72705;53.346;10.248;2024-02-23T01:33:34;98221.78;;;7.65;86.27
82931;BME280;72705;53.346;10.248;2024-02-23T01:36:01;98237.25;;;7.50;89.60
82931;BME280;72705;53.346;10.248;2024-02-23T01:38:26;98252.41;;;7.03;95.51
82931;BME280;72705;53.346;10.248;2024-02-23T01:41:01;98244.22;;;6.64;100.00
82931;BME280;72705;53.346;10.248;2024-02-23T01:43:27;98268.59;;;6.34;100.00
82931;BME280;72705;53.346;10.248;2024-02-23T01:45:53;98282.00;;;6.41;99.68
82931;BME280;72705;53.346;10.248;2024-02-23T01:48:21;98274.31;;;6.31;97.44
82931;BME280;72705;53.346;10.248;2024-02-23T01:50:50;98293.06;;;6.31;97.57
82931;BME280;72705;53.346;10.248;2024-02-23T01:53:16;98297.28;;;6.19;98.21
82931;BME280;72705;53.346;10.248;2024-02-23T01:55:44;98315.00;;;6.20;97.72
82931;BME280;72705;53.346;10.248;2024-02-23T01:58:10;98328.53;;;6.12;97.03
82931;BME280;72705;53.346;10.248;2024-02-23T02:00:36;98322.41;;;6.18;95.29
82931;BME280;72705;53.346;10.248;2024-02-23T02:03:02;98351.22;;;6.16;95.92
82931;BME280;72705;53.346;10.248;2024-02-23T02:05:40;98360.75;;;6.25;95.90
82931;BME280;72705;53.346;10.248;2024-02-23T02:08:06;98361.97;;;6.23;93.91
82931;BME280;72705;53.346;10.248;2024-02-23T02:10:31;98369.19;;;6.22;94.75
82931;BME280;72705;53.346;10.248;2024-02-23T02:13:02;98381.84;;;6.35;93.59
82931;BME280;72705;53.346;10.248;2024-02-23T02:15:32;98381.44;;;6.38;92.02
82931;BME280;72705;53.346;10.248;2024-02-23T02:17:57;98397.50;;;6.38;93.79
82931;BME280;72705;53.346;10.248;2024-02-23T02:20:32;98405.72;;;6.36;93.07
82931;BME280;72705;53.346;10.248;2024-02-23T02:22:59;98412.72;;;6.37;93.64
82931;BME280;72705;53.346;10.248;2024-02-23T02:25:24;98404.44;;;6.32;92.56
82931;BME280;72705;53.346;10.248;2024-02-23T02:27:51;98416.88;;;6.40;91.87
82931;BME280;72705;53.346;10.248;2024-02-23T02:30:17;98414.38;;;6.38;91.12
82931;BME280;72705;53.346;10.248;2024-02-23T02:32:49;98434.97;;;6.38;91.64
82931;BME280;72705;53.346;10.248;2024-02-23T02:35:26;98439.00;;;6.27;91.91
82931;BME280;72705;53.346;10.248;2024-02-23T02:37:52;98454.88;;;6.29;91.98
82931;BME280;72705;53.346;10.248;2024-02-23T02:40:20;98480.56;;;6.23;93.12
82931;BME280;72705;53.346;10.248;2024-02-23T02:42:45;98494.88;;;6.16;94.09
82931;BME280;72705;53.346;10.248;2024-02-23T02:45:14;98492.06;;;6.02;95.41
82931;BME280;72705;53.346;10.248;2024-02-23T02:47:39;98517.72;;;5.97;94.89
82931;BME280;72705;53.346;10.248;2024-02-23T02:50:04;98527.53;;;5.90;95.60
82931;BME280;72705;53.346;10.248;2024-02-23T02:52:32;98537.28;;;5.83;95.94
82931;BME280;72705;53.346;10.248;2024-02-23T02:54:59;98548.44;;;5.72;98.54
82931;BME280;72705;53.346;10.248;2024-02-23T02:57:24;98546.00;;;5.55;100.00
82931;BME280;72705;53.346;10.248;2024-02-23T02:59:49;98559.78;;;5.44;99.48
82931;BME280;72705;53.346;10.248;2024-02-23T03:02:15;98571.31;;;5.45;98.89
82931;BME280;72705;53.346;10.248;2024-02-23T03:04:52;98568.19;;;5.41;97.75
82931;BME280;72705;53.346;10.248;2024-02-23T03:07:19;98573.25;;;5.36;98.18
82931;BME280;72705;53.346;10.248;2024-02-23T03:09:44;98595.00;;;5.33;98.67
82931;BME280;72705;53.346;10.248;2024-02-23T03:12:10;98599.69;;;5.31;99.55
82931;BME280;72705;53.346;10.248;2024-02-23T03:14:36;98601.56;;;5.31;98.86
82931;BME280;72705;53.346;10.248;2024-02-23T03:17:06;98599.41;;;5.26;98.49
82931;BME280;72705;53.346;10.248;2024-02-23T03:19:37;98596.44;;;5.21;98.44
82931;BME280;72705;53.346;10.248;2024-02-23T03:22:03;98601.78;;;5.21;98.10
82931;BME280;72705;53.346;10.248;2024-02-23T03:24:29;98618.19;;;5.18;97.77
82931;BME280;72705;53.346;10.248;2024-02-23T03:26:54;98615.88;;;5.15;98.88
82931;BME280;72705;53.346;10.248;2024-02-23T03:29:20;98625.91;;;5.13;100.00
82931;BME280;72705;53.346;10.248;2024-02-23T03:31:51;98628.28;;;5.08;100.00
82931;BME280;72705;53.346;10.248;2024-02-23T03:34:16;98642.53;;;5.00;100.00
82931;BME280;72705;53.346;10.248;2024-02-23T03:36:42;98644.41;;;5.00;100.00
82931;BME280;72705;53.346;10.248;2024-02-23T03:39:07;98658.81;;;4.91;100.00
82931;BME280;72705;53.346;10.248;2024-02-23T03:41:33;98638.72;;;4.80;100.00
82931;BME280;72705;53.346;10.248;2024-02-23T03:43:58;98667.25;;;4.79;100.00
82931;BME280;72705;53.346;10.248;2024-02-23T03:46:24;98668.91;;;4.80;100.00
82931;BME280;72705;53.346;10.248;2024-02-23T03:48:50;98664.16;;;4.68;100.00
82931;BME280;72705;53.346;10.248;2024-02-23T03:51:23;98669.00;;;4.64;100.00
82931;BME280;72705;53.346;10.248;2024-02-23T03:53:49;98684.00;;;4.65;100.00
82931;BME280;72705;53.346;10.248;2024-02-23T03:56:15;98664.38;;;4.58;100.00
82931;BME280;72705;53.346;10.248;2024-02-23T03:58:41;98680.22;;;4.60;100.00
82931;BME280;72705;53.346;10.248;2024-02-23T04:01:06;98686.22;;;4.62;100.00
82931;BME280;72705;53.346;10.248;2024-02-23T04:03:31;98696.31;;;4.74;99.97
82931;BME280;72705;53.346;10.248;2024-02-23T04:05:57;98702.88;;;4.64;100.00
82931;BME280;72705;53.346;10.248;2024-02-23T04:08:27;98709.19;;;4.71;99.58
82931;BME280;72705;53.346;10.248;2024-02-23T04:10:52;98717.69;;;4.74;99.80
82931;BME280;72705;53.346;10.248;2024-02-23T04:13:20;98715.66;;;4.76;98.71
82931;BME280;72705;53.346;10.248;2024-02-23T04:15:45;98716.13;;;4.80;97.71
82931;BME280;72705;53.346;10.248;2024-02-23T04:18:11;98719.28;;;4.83;95.89
82931;BME280;72705;53.346;10.248;2024-02-23T04:20:36;98720.97;;;4.76;96.43
82931;BME280;72705;53.346;10.248;2024-02-23T04:23:02;98717.88;;;4.65;97.36
82931;BME280;72705;53.346;10.248;2024-02-23T04:25:30;98735.34;;;4.75;95.02
82931;BME280;72705;53.346;10.248;2024-02-23T04:27:55;98735.03;;;4.70;96.17
82931;BME280;72705;53.346;10.248;2024-02-23T04:30:21;98755.06;;;4.74;95.55
82931;BME280;72705;53.346;10.248;2024-02-23T04:32:46;98751.03;;;4.78;95.56
82931;BME280;72705;53.346;10.248;2024-02-23T04:35:11;98737.84;;;4.77;95.04
82931;BME280;72705;53.346;10.248;2024-02-23T04:37:39;98752.88;;;4.70;95.67
82931;BME280;72705;53.346;10.248;2024-02-23T04:40:10;98758.38;;;4.76;95.45
82931;BME280;72705;53.346;10.248;2024-02-23T04:42:35;98756.06;;;4.73;94.94
82931;BME280;72705;53.346;10.248;2024-02-23T04:45:06;98760.72;;;4.71;95.54
82931;BME280;72705;53.346;10.248;2024-02-23T04:47:32;98768.06;;;4.69;94.70
82931;BME280;72705;53.346;10.248;2024-02-23T04:49:57;98782.31;;;4.62;95.56
82931;BME280;72705;53.346;10.248;2024-02-23T04:52:23;98776.28;;;4.68;94.70
82931;BME280;72705;53.346;10.248;2024-02-23T04:54:48;98776.75;;;4.71;93.86
82931;BME280;72705;53.346;10.248;2024-02-23T04:57:14;98767.44;;;4.67;93.67
82931;BME280;72705;53.346;10.248;2024-02-23T04:59:39;98781.63;;;4.68;94.30
82931;BME280;72705;53.346;10.248;2024-02-23T05:02:04;98788.16;;;4.57;95.78
82931;BME280;72705;53.346;10.248;2024-02-23T05:04:30;98785.16;;;4.60;94.31
82931;BME280;72705;53.346;10.248;2024-02-23T05:06:55;98786.47;;;4.64;93.84
82931;BME280;72705;53.346;10.248;2024-02-23T05:09:23;98795.81;;;4.60;94.76
82931;BME280;72705;53.346;10.248;2024-02-23T05:11:48;98800.09;;;4.69;94.35
82931;BME280;72705;53.346;10.248;2024-02-23T05:14:14;98804.81;;;4.67;93.78
82931;BME280;72705;53.346;10.248;2024-02-23T05:16:40;98791.16;;;4.62;93.24
82931;BME280;72705;53.346;10.248;2024-02-23T05:19:06;98805.44;;;4.77;92.29
82931;BME280;72705;53.346;10.248;2024-02-23T05:21:32;98815.78;;;4.80;93.18
82931;BME280;72705;53.346;10.248;2024-02-23T05:23:58;98816.06;;;4.85;92.18
82931;BME280;72705;53.346;10.248;2024-02-23T05:26:23;98816.41;;;4.82;92.10
82931;BME280;72705;53.346;10.248;2024-02-23T05:28:49;98822.13;;;4.79;92.70
82931;BME280;72705;53.346;10.248;2024-02-23T05:31:14;98837.78;;;4.82;92.40
82931;BME280;72705;53.346;10.248;2024-02-23T05:33:43;98839.13;;;4.78;92.47
82931;BME280;72705;53.346;10.248;2024-02-23T05:36:11;98830.09;;;4.87;91.79
82931;BME280;72705;53.346;10.248;2024-02-23T05:38:40;98852.41;;;4.95;91.00
82931;BME280;72705;53.346;10.248;2024-02-23T05:41:06;98852.19;;;4.73;92.44
82931;BME280;72705;53.346;10.248;2024-02-23T05:43:31;98856.81;;;4.79;91.55
82931;BME280;72705;53.346;10.248;2024-02-23T05:45:56;98867.53;;;4.71;91.78
82931;BME280;72705;53.346;10.248;2024-02-23T05:48:25;98869.50;;;4.77;90.66
82931;BME280;72705;53.346;10.248;2024-02-23T05:50:51;98876.50;;;4.86;90.53
82931;BME280;72705;53.346;10.248;2024-02-23T05:53:23;98876.50;;;4.86;90.44
82931;BME280;72705;53.346;10.248;2024-02-23T05:55:48;98879.06;;;4.64;91.71
82931;BME280;72705;53.346;10.248;2024-02-23T05:58:14;98891.88;;;4.76;91.70
82931;BME280;72705;53.346;10.248;2024-02-23T06:00:47;98912.22;;;4.77;91.49
82931;BME280;72705;53.346;10.248;2024-02-23T06:03:13;98920.25;;;4.77;92.11
82931;BME280;72705;53.346;10.248;2024-02-23T06:05:39;98912.53;;;4.82;91.95
82931;BME280;72705;53.346;10.248;2024-02-23T06:08:05;98917.56;;;4.77;91.94
82931;BME280;72705;53.346;10.248;2024-02-23T06:10:40;98935.41;;;4.77;92.30
82931;BME280;72705;53.346;10.248;2024-02-23T06:13:08;98930.94;;;4.69;92.74
82931;BME280;72705;53.346;10.248;2024-02-23T06:15:41;98936.31;;;4.61;93.63
82931;BME280;72705;53.346;10.248;2024-02-23T06:18:07;98926.47;;;4.54;94.21
82931;BME280;72705;53.346;10.248;2024-02-23T06:20:33;98933.16;;;4.50;94.62
82931;BME280;72705;53.346;10.248;2024-02-23T06:22:59;98940.13;;;4.51;94.51
82931;BME280;72705;53.346;10.248;2024-02-23T06:25:24;98951.16;;;4.47;95.71
82931;BME280;72705;53.346;10.248;2024-02-23T06:27:53;98955.34;;;4.42;95.46
82931;BME280;72705;53.346;10.248;2024-02-23T06:30:22;98958.16;;;4.48;95.44
82931;BME280;72705;53.346;10.248;2024-02-23T06:32:47;98968.34;;;4.45;95.55
82931;BME280;72705;53.346;10.248;2024-02-23T06:35:12;98962.50;;;4.33;96.44
82931;BME280;72705;53.346;10.248;2024-02-23T06:37:52;98967.38;;;4.38;96.14
82931;BME280;72705;53.346;10.248;2024-02-23T06:40:17;98975.00;;;4.33;96.88
82931;BME280;72705;53.346;10.248;2024-02-23T06:42:51;98963.50;;;4.32;96.74
82931;BME280;72705;53.346;10.248;2024-02-23T06:45:17;98968.53;;;4.35;95.74
82931;BME280;72705;53.346;10.248;2024-02-23T06:47:44;98970.31;;;4.51;94.53
82931;BME280;72705;53.346;10.248;2024-02-23T06:50:10;98975.69;;;4.43;95.11
82931;BME280;72705;53.346;10.248;2024-02-23T06:52:35;98979.34;;;4.42;95.29
82931;BME280;72705;53.346;10.248;2024-02-23T06:55:00;98989.34;;;4.40;94.98
82931;BME280;72705;53.346;10.248;2024-02-23T06:57:26;99006.03;;;4.42;94.96
82931;BME280;72705;53.346;10.248;2024-02-23T07:00:05;98998.72;;;4.44;94.65
82931;BME280;72705;53.346;10.248;2024-02-23T07:02:32;98982.72;;;4.44;94.99
82931;BME280;72705;53.346;10.248;2024-02-23T07:05:13;99008.72;;;4.42;94.90
82931;BME280;72705;53.346;10.248;2024-02-23T07:07:39;99009.06;;;4.55;94.06
82931;BME280;72705;53.346;10.248;2024-02-23T07:10:08;99013.72;;;4.61;93.20
82931;BME280;72705;53.346;10.248;2024-02-23T07:12:33;98996.88;;;4.61;92.75
82931;BME280;72705;53.346;10.248;2024-02-23T07:14:59;99018.72;;;4.72;91.57
82931;BME280;72705;53.346;10.248;2024-02-23T07:17:24;99034.38;;;4.75;91.16
82931;BME280;72705;53.346;10.248;2024-02-23T07:19:49;99032.06;;;4.80;90.43
82931;BME280;72705;53.346;10.248;2024-02-23T07:22:16;99034.38;;;4.83;90.89
82931;BME280;72705;53.346;10.248;2024-02-23T07:24:43;99038.41;;;4.87;89.69
82931;BME280;72705;53.346;10.248;2024-02-23T07:27:33;99046.38;;;4.96;89.38
82931;BME280;72705;53.346;10.248;2024-02-23T07:29:59;99048.22;;;4.95;89.06
82931;BME280;72705;53.346;10.248;2024-02-23T07:32:31;99051.88;;;5.02;88.40
82931;BME280;72705;53.346;10.248;2024-02-23T07:34:59;99047.03;;;5.14;87.43
82931;BME280;72705;53.346;10.248;2024-02-23T07:37:28;99044.66;;;5.19;86.62
82931;BME280;72705;53.346;10.248;2024-02-23T07:39:56;99045.03;;;5.16;86.63
82931;BME280;72705;53.346;10.248;2024-02-23T07:42:21;99057.03;;;5.28;86.09
82931;BME280;72705;53.346;10.248;2024-02-23T07:44:55;99060.38;;;5.30;85.20
82931;BME280;72705;53.346;10.248;2024-02-23T07:47:31;99069.19;;;5.39;84.75
82931;BME280;72705;53.346;10.248;2024-02-23T07:49:57;99069.47;;;5.52;84.99
82931;BME280;72705;53.346;10.248;2024-02-23T07:52:35;99063.28;;;5.59;84.08
82931;BME280;72705;53.346;10.248;2024-02-23T07:55:06;99076.28;;;5.62;84.20
82931;BME280;72705;53.346;10.248;2024-02-23T07:57:36;99093.03;;;5.56;84.18
82931;BME280;72705;53.346;10.248;2024-02-23T08:00:19;99088.19;;;5.60;84.00
82931;BME280;72705;53.346;10.248;2024-02-23T08:02:45;99083.47;;;5.62;83.93
82931;BME280;72705;53.346;10.248;2024-02-23T08:05:21;99094.16;;;5.70;84.80
82931;BME280;72705;53.346;10.248;2024-02-23T08:07:47;99087.97;;;5.69;84.57
82931;BME280;72705;53.346;10.248;2024-02-23T08:10:16;99098.34;;;5.73;84.30
82931;BME280;72705;53.346;10.248;2024-02-23T08:12:47;99101.31;;;5.78;82.39
82931;BME280;72705;53.346;10.248;2024-02-23T08:15:12;99113.50;;;5.80;82.87
82931;BME280;72705;53.346;10.248;2024-02-23T08:17:42;99104.47;;;5.89;83.00
82931;BME280;72705;53.346;10.248;2024-02-23T08:20:26;99105.31;;;5.90;82.22
82931;BME280;72705;53.346;10.248;2024-02-23T08:22:58;99107.47;;;5.94;82.09
82931;BME280;72705;53.346;10.248;2024-02-23T08:25:25;99110.66;;;5.98;82.27
82931;BME280;72705;53.346;10.248;2024-02-23T08:27:53;99119.16;;;6.01;81.79
82931;BME280;72705;53.346;10.248;2024-02-23T08:30:19;99116.31;;;6.03;80.08
82931;BME280;72705;53.346;10.248;2024-02-23T08:32:48;99119.13;;;6.09;80.25
82931;BME280;72705;53.346;10.248;2024-02-23T08:35:26;99116.59;;;6.16;79.97
82931;BME280;72705;53.346;10.248;2024-02-23T08:37:51;99130.28;;;6.21;80.76
82931;BME280;72705;53.346;10.248;2024-02-23T08:40:22;99120.53;;;6.28;78.72
82931;BME280;72705;53.346;10.248;2024-02-23T08:42:50;99132.53;;;6.32;79.02
82931;BME280;72705;53.346;10.248;2024-02-23T08:45:27;99126.34;;;6.32;78.74
82931;BME280;72705;53.346;10.248;2024-02-23T08:47:52;99128.16;;;6.39;79.88
82931;BME280;72705;53.346;10.248;2024-02-23T08:50:17;99137.81;;;6.48;77.90
82931;BME280;72705;53.346;10.248;2024-02-23T08:52:43;99126.63;;;6.45;77.45
82931;BME280;72705;53.346;10.248;2024-02-23T08:55:17;99154.50;;;6.59;78.37
82931;BME280;72705;53.346;10.248;2024-02-23T08:57:42;99152.25;;;6.70;78.01
82931;BME280;72705;53.346;10.248;2024-02-23T09:00:25;99167.72;;;6.83;78.06
82931;BME280;72705;53.346;10.248;2024-02-23T09:02:50;99154.63;;;6.65;77.56
82931;BME280;72705;53.346;10.248;2024-02-23T09:05:23;99174.91;;;6.60;77.50
82931;BME280;72705;53.346;10.248;2024-02-23T09:07:49;99165.22;;;6.59;77.78
82931;BME280;72705;53.346;10.248;2024-02-23T09:10:16;99163.94;;;6.46;77.03
82931;BME280;72705;53.346;10.248;2024-02-23T09:12:47;99171.91;;;6.55;76.37
82931;BME280;72705;53.346;10.248;2024-02-23T09:15:12;99174.94;;;6.52;77.00
82931;BME280;72705;53.346;10.248;2024-02-23T09:17:42;99177.09;;;6.56;75.99
82931;BME280;72705;53.346;10.248;2024-02-23T09:20:11;99196.19;;;6.84;76.59
82931;BME280;72705;53.346;10.248;2024-02-23T09:22:42;99202.63;;;6.98;75.26
82931;BME280;72705;53.346;10.248;2024-02-23T09:25:08;99200.38;;;7.09;74.29
82931;BME280;72705;53.346;10.248;2024-02-23T09:27:33;99210.84;;;7.19;73.29
82931;BME280;72705;53.346;10.248;2024-02-23T09:30:01;99205.75;;;7.09;73.03
82931;BME280;72705;53.346;10.248;2024-02-23T09:32:41;99201.53;;;7.29;73.39
82931;BME280;72705;53.346;10.248;2024-02-23T09:35:07;99216.88;;;7.21;73.92
82931;BME280;72705;53.346;10.248;2024-02-23T09:37:33;99227.34;;;7.30;74.89
82931;BME280;72705;53.346;10.248;2024-02-23T09:40:02;99234.34;;;7.40;73.65
82931;BME280;72705;53.346;10.248;2024-02-23T09:42:37;99223.38;;;7.26;73.85
82931;BME280;72705;53.346;10.248;2024-02-23T09:45:10;99226.69;;;7.28;71.09
82931;BME280;72705;53.346;10.248;2024-02-23T09:47:40;99233.97;;;7.43;71.61
82931;BME280;72705;53.346;10.248;2024-02-23T09:50:06;99226.72;;;7.66;69.98
82931;BME280;72705;53.346;10.248;2024-02-23T09:52:53;99241.06;;;7.73;68.57
82931;BME280;72705;53.346;10.248;2024-02-23T09:55:21;99244.41;;;7.75;66.79
82931;BME280;72705;53.346;10.248;2024-02-23T09:57:48;99248.84;;;7.68;68.96
82931;BME280;72705;53.346;10.248;2024-02-23T10:00:15;99269.00;;;7.41;70.08
82931;BME280;72705;53.346;10.248;2024-02-23T10:02:42;99257.25;;;7.42;70.71
82931;BME280;72705;53.346;10.248;2024-02-23T10:05:13;99267.22;;;7.34;71.08
82931;BME280;72705;53.346;10.248;2024-02-23T10:07:39;99266.34;;;7.10;70.00
82931;BME280;72705;53.346;10.248;2024-02-23T10:10:08;99282.78;;;7.38;68.59
82931;BME280;72705;53.346;10.248;2024-02-23T10:12:35;99283.63;;;7.39;66.88
82931;BME280;72705;53.346;10.248;2024-02-23T10:15:03;99296.47;;;7.66;69.38
82931;BME280;72705;53.346;10.248;2024-02-23T10:17:41;99302.06;;;7.79;67.99
82931;BME280;72705;53.346;10.248;2024-02-23T10:20:18;99299.94;;;7.75;68.41
82931;BME280;72705;53.346;10.248;2024-02-23T10:22:44;99311.56;;;7.67;69.00
82931;BME280;72705;53.346;10.248;2024-02-23T10:25:23;99305.72;;;7.63;70.19
82931;BME280;72705;53.346;10.248;2024-02-23T10:27:48;99283.44;;;7.40;69.43
82931;BME280;72705;53.346;10.248;2024-02-23T10:30:14;99320.03;;;7.56;69.88
82931;BME280;72705;53.346;10.248;2024-02-23T10:32:42;99319.31;;;7.62;69.47
82931;BME280;72705;53.346;10.248;2024-02-23T10:35:13;99323.00;;;7.61;69.04
82931;BME280;72705;53.346;10.248;2024-02-23T10:37:42;99306.56;;;7.64;70.00
82931;BME280;72705;53.346;10.248;2024-02-23T10:40:16;99320.97;;;7.86;68.75
82931;BME280;72705;53.346;10.248;2024-02-23T10:43:08;99328.81;;;8.10;69.37
82931;BME280;72705;53.346;10.248;2024-02-23T10:45:37;99318.56;;;8.13;65.42
82931;BME280;72705;53.346;10.248;2024-02-23T10:48:18;99319.06;;;7.94;66.71
82931;BME280;72705;53.346;10.248;2024-02-23T10:50:44;99331.31;;;8.11;67.40
82931;BME280;72705;53.346;10.248;2024-02-23T10:53:10;99317.22;;;8.09;66.12
82931;BME280;72705;53.346;10.248;2024-02-23T10:55:36;99316.41;;;8.09;66.34
82931;BME280;72705;53.346;10.248;2024-02-23T10:58:04;99316.09;;;7.89;66.67
82931;BME280;72705;53.346;10.248;2024-02-23T11:00:33;99330.75;;;8.01;67.81
82931;BME280;72705;53.346;10.248;2024-02-23T11:02:58;99332.41;;;8.02;69.12
82931;BME280;72705;53.346;10.248;2024-02-23T11:05:24;99330.63;;;7.95;68.01
82931;BME280;72705;53.346;10.248;2024-02-23T11:07:50;99326.09;;;7.95;65.94
82931;BME280;72705;53.346;10.248;2024-02-23T11:10:17;99319.47;;;8.06;66.30
82931;BME280;72705;53.346;10.248;2024-02-23T11:12:43;99300.91;;;7.96;66.20
82931;BME280;72705;53.346;10.248;2024-02-23T11:15:30;99313.81;;;8.16;64.59
82931;BME280;72705;53.346;10.248;2024-02-23T11:18:00;99305.53;;;8.02;64.23
82931;BME280;72705;53.346;10.248;2024-02-23T11:20:37;99318.78;;;8.04;65.60
82931;BME280;72705;53.346;10.248;2024-02-23T11:23:14;99317.97;;;8.03;65.25
82931;BME280;72705;53.346;10.248;2024-02-23T11:26:06;99317.53;;;8.15;65.34
82931;BME280;72705;53.346;10.248;2024-02-23T11:28:32;99330.38;;;8.04;65.41
82931;BME280;72705;53.346;10.248;2024-02-23T11:30:57;99320.88;;;8.17;65.08
82931;BME280;72705;53.346;10.248;2024-02-23T11:33:34;99302.56;;;8.20;64.56
82931;BME280;72705;53.346;10.248;2024-02-23T11:36:07;99306.28;;;8.34;64.49
82931;BME280;72705;53.346;10.248;2024-02-23T11:38:32;99321.75;;;8.32;63.98
82931;BME280;72705;53.346;10.248;2024-02-23T11:41:16;99313.63;;;8.17;65.01
82931;BME280;72705;53.346;10.248;2024-02-23T11:44:05;99318.19;;;8.17;64.59
82931;BME280;72705;53.346;10.248;2024-02-23T11:46:32;99322.72;;;8.16;63.57
82931;BME280;72705;53.346;10.248;2024-02-23T11:48:57;99309.84;;;8.11;63.42
82931;BME280;72705;53.346;10.248;2024-02-23T11:51:23;99326.50;;;8.22;63.58
82931;BME280;72705;53.346;10.248;2024-02-23T11:53:51;99328.34;;;8.06;63.97
82931;BME280;72705;53.346;10.248;2024-02-23T11:56:18;99321.66;;;8.02;63.73
82931;BME280;72705;53.346;10.248;2024-02-23T11:58:44;99304.63;;;7.95;63.76
82931;BME280;72705;53.346;10.248;2024-02-23T12:01:09;99322.38;;;7.96;65.32
82931;BME280;72705;53.346;10.248;2024-02-23T12:03:35;99324.00;;;8.05;65.11
82931;BME280;72705;53.346;10.248;2024-02-23T12:06:08;99318.63;;;8.05;64.02
82931;BME280;72705;53.346;10.248;2024-02-23T12:08:36;99332.16;;;8.12;63.38
82931;BME280;72705;53.346;10.248;2024-02-23T12:11:05;99322.25;;;8.12;64.05
82931;BME280;72705;53.346;10.248;2024-02-23T12:13:32;99313.91;;;8.07;63.12
82931;BME280;72705;53.346;10.248;2024-02-23T12:15:59;99324.28;;;8.10;63.17
82931;BME280;72705;53.346;10.248;2024-02-23T12:18:24;99319.66;;;8.19;63.37
82931;BME280;72705;53.346;10.248;2024-02-23T12:21:04;99321.81;;;8.24;62.15
82931;BME280;72705;53.346;10.248;2024-02-23T12:23:45;99325.22;;;8.18;61.62
82931;BME280;72705;53.346;10.248;2024-02-23T12:26:13;99324.72;;;8.37;62.24
82931;BME280;72705;53.346;10.248;2024-02-23T12:28:39;99317.59;;;8.44;60.97
82931;BME280;72705;53.346;10.248;2024-02-23T12:31:06;99337.97;;;8.53;60.01
82931;BME280;72705;53.346;10.248;2024-02-23T12:33:32;99314.44;;;8.40;60.41
82931;BME280;72705;53.346;10.248;2024-02-23T12:35:59;99310.56;;;8.43;60.03
82931;BME280;72705;53.346;10.248;2024-02-23T12:38:25;99313.06;;;8.59;60.83
82931;BME280;72705;53.346;10.248;2024-02-23T12:40:51;99309.09;;;8.70;59.81
82931;BME280;72705;53.346;10.248;2024-02-23T12:43:18;99321.22;;;8.51;59.59
82931;BME280;72705;53.346;10.248;2024-02-23T12:45:43;99325.13;;;8.63;60.56
82931;BME280;72705;53.346;10.248;2024-02-23T12:48:14;99313.44;;;8.56;58.67
82931;BME280;72705;53.346;10.248;2024-02-23T12:50:40;99314.63;;;8.53;59.80
82931;BME280;72705;53.346;10.248;2024-02-23T12:53:05;99344.13;;;8.76;60.05
82931;BME280;72705;53.346;10.248;2024-02-23T12:55:31;99310.81;;;8.77;58.74
82931;BME280;72705;53.346;10.248;2024-02-23T12:57:56;99308.78;;;8.79;58.46
82931;BME280;72705;53.346;10.248;2024-02-23T13:00:27;99338.63;;;8.84;58.54
82931;BME280;72705;53.346;10.248;2024-02-23T13:02:53;99291.66;;;8.66;57.40
82931;BME280;72705;53.346;10.248;2024-02-23T13:05:20;99330.47;;;8.92;57.83
82931;BME280;72705;53.346;10.248;2024-02-23T13:07:47;99343.34;;;9.12;58.86